Time;durP1;ratioP1;P1;durP2;ratioP2;P2;SDS_P1;SDS_P2;PMS_P1;PMS_P2;Temp;Humidity;BMP_temperature;BMP_pressure;BME280_temperature;BME280_humidity;BME280_pressure;Samples;Min_cycle;Max_cycle;Signal;HPM_P1;HPM_P2
2022/04/15 00:00:11;;;;;;;10.68;6.32;;;6.20;99.90;;;;;;4974245;28;20047;-82
2022/04/15 00:02:37;;;;;;;11.65;5.93;;;6.20;99.90;;;;;;4972244;29;20139;-82
2022/04/15 00:05:29;;;;;;;11.38;6.13;;;6.10;99.90;;;;;;4990134;28;20525;-81
2022/04/15 00:07:50;;;;;;;11.77;6.80;;;6.20;99.90;;;;;;4975251;28;20150;-81
2022/04/15 00:10:16;;;;;;;14.55;6.82;;;6.20;99.90;;;;;;4976029;28;20050;-79
2022/04/15 00:12:42;;;;;;;18.67;6.90;;;6.30;99.90;;;;;;4974834;28;20046;-81
2022/04/15 00:15:08;;;;;;;13.55;7.15;;;6.30;99.90;;;;;;4974138;28;20049;-81
2022/04/15 00:17:34;;;;;;;13.80;6.88;;;6.30;99.90;;;;;;4973397;28;20047;-81
2022/04/15 00:19:59;;;;;;;12.80;6.88;;;6.40;99.90;;;;;;4973997;28;20047;-79
2022/04/15 00:22:25;;;;;;;11.65;6.25;;;6.40;99.90;;;;;;4973574;28;20096;-81
2022/04/15 00:24:50;;;;;;;17.25;7.40;;;6.50;99.90;;;;;;4973997;28;20137;-81
2022/04/15 00:27:16;;;;;;;15.85;7.85;;;6.50;99.90;;;;;;4973722;28;20050;-78
2022/04/15 00:29:42;;;;;;;15.23;6.20;;;6.60;99.90;;;;;;4973761;28;20061;-81
2022/04/15 00:32:08;;;;;;;13.57;7.28;;;6.60;99.90;;;;;;4973028;28;20476;-81
2022/04/15 00:34:34;;;;;;;11.52;6.70;;;6.70;99.90;;;;;;4973561;28;20060;-82
2022/04/15 00:37:00;;;;;;;14.13;7.00;;;6.70;99.90;;;;;;4973757;28;20042;-81
2022/04/15 00:39:25;;;;;;;19.02;6.05;;;6.80;99.90;;;;;;4953405;29;20507;-80
2022/04/15 00:41:51;;;;;;;10.63;5.78;;;6.80;99.90;;;;;;4969331;28;20039;-81
2022/04/15 00:44:16;;;;;;;15.02;6.32;;;6.80;99.90;;;;;;4954908;28;20133;-81
2022/04/15 00:46:42;;;;;;;13.48;6.25;;;6.90;99.90;;;;;;4973550;28;20047;-80
2022/04/15 00:49:08;;;;;;;19.90;6.20;;;6.90;99.90;;;;;;4954254;28;20062;-82
2022/04/15 00:51:38;;;;;;;9.80;5.97;;;7.00;99.90;;;;;;4952943;29;20055;-79
2022/04/15 00:54:05;;;;;;;11.98;6.47;;;7.00;99.90;;;;;;4971052;28;20047;-80
2022/04/15 00:56:36;;;;;;;15.57;7.60;;;7.60;99.90;;;;;;4973403;28;20089;-81
2022/04/15 00:59:04;;;;;;;8.43;5.53;;;7.20;99.90;;;;;;4973639;28;20082;-82
2022/04/15 01:01:31;;;;;;;15.68;6.50;;;7.20;99.90;;;;;;4973568;28;20085;-81
2022/04/15 01:03:57;;;;;;;14.75;6.65;;;7.30;99.90;;;;;;4972456;28;20050;-80
2022/04/15 01:06:28;;;;;;;12.48;6.90;;;7.30;99.90;;;;;;4973385;28;20097;-81
2022/04/15 01:08:58;;;;;;;13.68;6.70;;;7.30;99.90;;;;;;4965131;28;20047;-80
2022/04/15 01:11:26;;;;;;;13.18;6.30;;;7.40;99.90;;;;;;4973116;28;20051;-80
2022/04/15 01:13:53;;;;;;;16.42;6.50;;;7.40;99.90;;;;;;4972619;28;20513;-79
2022/04/15 01:16:20;;;;;;;13.27;6.40;;;7.40;99.90;;;;;;4972925;28;20059;-81
2022/04/15 01:18:46;;;;;;;10.95;6.70;;;7.40;99.90;;;;;;4951557;29;20055;-79
2022/04/15 01:21:13;;;;;;;15.10;6.75;;;7.50;99.90;;;;;;4971826;28;20038;-81
2022/04/15 01:23:40;;;;;;;17.40;6.95;;;8.20;99.90;;;;;;4952028;29;20058;-80
2022/04/15 01:26:06;;;;;;;13.48;6.40;;;7.60;99.90;;;;;;4953244;28;20510;-81
2022/04/15 01:28:33;;;;;;;19.00;6.90;;;7.60;99.90;;;;;;4952921;28;20082;-81
2022/04/15 01:30:58;;;;;;;13.43;7.18;;;7.60;99.90;;;;;;4972727;28;20055;-82
2022/04/15 01:33:24;;;;;;;19.85;6.70;;;7.60;99.90;;;;;;4955101;28;20051;-79
2022/04/15 01:35:50;;;;;;;14.43;6.78;;;7.60;99.90;;;;;;4971891;28;20048;-79
2022/04/15 01:38:17;;;;;;;20.52;6.50;;;7.70;99.90;;;;;;4972655;28;20154;-79
2022/04/15 01:40:46;;;;;;;18.25;6.72;;;7.70;99.90;;;;;;4972889;28;20043;-81
2022/04/15 01:43:12;;;;;;;14.73;6.60;;;7.80;99.90;;;;;;4972856;28;20502;-79
2022/04/15 01:45:38;;;;;;;12.82;6.90;;;7.80;99.90;;;;;;4972123;28;20061;-80
2022/04/15 01:48:04;;;;;;;14.32;6.65;;;7.80;99.90;;;;;;4954749;28;20047;-82
2022/04/15 01:50:31;;;;;;;13.13;6.55;;;7.80;99.90;;;;;;4972339;28;20070;-81
2022/04/15 01:52:58;;;;;;;14.45;6.38;;;8.20;99.90;;;;;;4954770;28;20051;-81
2022/04/15 01:55:24;;;;;;;16.77;6.68;;;7.80;99.90;;;;;;4972256;28;20093;-82
2022/04/15 01:57:49;;;;;;;16.63;6.75;;;7.80;99.90;;;;;;4972161;28;20043;-81
2022/04/15 02:00:15;;;;;;;9.93;5.97;;;8.00;99.90;;;;;;4972505;28;20078;-78
2022/04/15 02:02:41;;;;;;;12.35;5.85;;;7.90;99.90;;;;;;4972680;28;20042;-80
2022/04/15 02:05:07;;;;;;;14.23;5.88;;;7.90;99.90;;;;;;4956111;28;20050;-80
2022/04/15 02:07:33;;;;;;;15.98;6.80;;;7.90;99.90;;;;;;4990792;28;20038;-77
2022/04/15 02:09:58;;;;;;;11.55;5.20;;;7.90;99.90;;;;;;4994743;28;20119;-78
2022/04/15 02:12:24;;;;;;;13.60;5.85;;;8.00;99.90;;;;;;4977065;28;20026;-80
2022/04/15 02:14:50;;;;;;;12.88;6.15;;;8.00;99.90;;;;;;4974699;28;20496;-81
2022/04/15 02:17:15;;;;;;;10.20;4.68;;;8.00;99.90;;;;;;4956769;28;20574;-81
2022/04/15 02:19:41;;;;;;;15.90;5.32;;;8.00;99.90;;;;;;4956239;28;20043;-82
2022/04/15 02:22:07;;;;;;;9.35;4.25;;;8.00;99.90;;;;;;4971780;28;20502;-79
2022/04/15 02:24:32;;;;;;;11.15;4.22;;;8.00;99.90;;;;;;4971813;28;20410;-80
2022/04/15 02:26:58;;;;;;;9.88;3.90;;;8.10;99.90;;;;;;4971883;28;20102;-82
2022/04/15 02:29:24;;;;;;;11.13;3.97;;;8.50;99.90;;;;;;4953921;28;20055;-82
2022/04/15 02:31:49;;;;;;;11.82;4.70;;;8.10;99.90;;;;;;4954476;28;20413;-82
2022/04/15 02:34:15;;;;;;;14.60;5.18;;;8.10;99.90;;;;;;4970997;28;20055;-82
2022/04/15 02:36:41;;;;;;;11.35;4.63;;;8.10;99.90;;;;;;4954373;28;20089;-81
2022/04/15 02:39:10;;;;;;;12.18;5.13;;;8.20;99.90;;;;;;4970761;28;20039;-81
2022/04/15 02:41:40;;;;;;;13.45;5.13;;;8.20;99.90;;;;;;4971670;28;20049;-82
2022/04/15 02:44:07;;;;;;;12.57;4.63;;;8.20;99.90;;;;;;4971285;28;20473;-81
2022/04/15 02:46:34;;;;;;;13.95;4.25;;;8.20;99.90;;;;;;4954036;28;20065;-81
2022/04/15 02:48:59;;;;;;;13.57;4.35;;;8.60;99.90;;;;;;4970941;28;20051;-81
2022/04/15 02:51:25;;;;;;;12.30;4.60;;;8.20;99.90;;;;;;4953922;28;20076;-82
2022/04/15 02:53:51;;;;;;;11.38;4.47;;;8.20;99.90;;;;;;4971310;28;20093;-80
2022/04/15 02:56:17;;;;;;;12.68;4.75;;;8.50;99.90;;;;;;4971440;28;20047;-82
2022/04/15 02:58:42;;;;;;;12.90;5.38;;;8.20;99.90;;;;;;4953902;28;20055;-83
2022/04/15 03:01:08;;;;;;;12.85;5.28;;;8.20;99.90;;;;;;4971216;28;20034;-81
2022/04/15 03:03:34;;;;;;;21.98;6.13;;;8.30;99.90;;;;;;4971269;28;20413;-81
2022/04/15 03:06:02;;;;;;;19.08;6.40;;;8.30;99.90;;;;;;4971925;28;20125;-82
2022/04/15 03:08:30;;;;;;;16.70;6.50;;;8.30;99.90;;;;;;4973915;28;20093;-81
2022/04/15 03:10:57;;;;;;;14.18;6.28;;;8.30;99.90;;;;;;4975513;28;20061;-80
2022/04/15 03:13:23;;;;;;;13.15;6.35;;;8.30;99.90;;;;;;4975884;28;20050;-82
2022/04/15 03:15:49;;;;;;;17.42;7.32;;;8.30;99.90;;;;;;4958344;28;20111;-82
2022/04/15 03:18:15;;;;;;;12.57;6.90;;;8.30;99.90;;;;;;4975284;28;20083;-81
2022/04/15 03:20:42;;;;;;;16.02;7.63;;;8.50;99.90;;;;;;4975542;28;20042;-81
2022/04/15 03:23:08;;;;;;;20.98;10.25;;;8.30;99.90;;;;;;4957620;28;20094;-82
2022/04/15 03:25:34;;;;;;;18.92;11.10;;;8.30;99.90;;;;;;4957334;28;20058;-82
2022/04/15 03:28:00;;;;;;;20.60;11.30;;;8.30;99.90;;;;;;4957807;28;20047;-81
2022/04/15 03:30:27;;;;;;;22.27;13.18;;;8.30;99.90;;;;;;4975067;28;20073;-82
2022/04/15 03:32:53;;;;;;;17.73;13.13;;;8.30;99.90;;;;;;4974633;28;20050;-82
2022/04/15 03:35:20;;;;;;;18.17;12.18;;;8.30;99.90;;;;;;4957627;28;20039;-80
2022/04/15 03:37:50;;;;;;;15.50;11.02;;;8.20;99.90;;;;;;4974802;28;20544;-83
2022/04/15 03:40:16;;;;;;;19.75;12.40;;;8.20;99.90;;;;;;4974557;28;20611;-83
2022/04/15 03:42:47;;;;;;;13.57;11.25;;;8.20;99.90;;;;;;4974452;28;20070;-83
2022/04/15 03:45:14;;;;;;;14.80;9.40;;;8.20;99.90;;;;;;4974214;28;20047;-82
2022/04/15 03:47:41;;;;;;;11.27;8.63;;;8.20;99.90;;;;;;4974311;28;20050;-83
2022/04/15 03:50:09;;;;;;;14.05;9.85;;;8.50;99.90;;;;;;4974597;28;20043;-80
2022/04/15 03:52:42;;;;;;;10.52;7.05;;;8.10;99.90;;;;;;4975088;28;20043;-82
2022/04/15 03:55:10;;;;;;;9.35;6.50;;;8.10;99.90;;;;;;4974294;28;20046;-82
2022/04/15 03:57:36;;;;;;;9.02;5.63;;;8.00;99.90;;;;;;4957261;28;20053;-82
2022/04/15 04:00:02;;;;;;;8.88;5.65;;;8.00;99.90;;;;;;4974494;28;20054;-82
2022/04/15 04:02:27;;;;;;;11.25;5.82;;;8.00;99.90;;;;;;4973643;28;20050;-80
2022/04/15 04:04:53;;;;;;;10.70;5.10;;;8.00;99.90;;;;;;4974059;28;20052;-82
2022/04/15 04:07:19;;;;;;;7.10;5.40;;;8.10;99.90;;;;;;4956526;28;20394;-82
2022/04/15 04:09:44;;;;;;;9.70;5.47;;;7.90;99.90;;;;;;4974360;28;20046;-84
2022/04/15 04:12:10;;;;;;;6.93;5.57;;;7.90;99.90;;;;;;4956019;28;20516;-84
2022/04/15 04:14:35;;;;;;;8.57;4.90;;;7.90;99.90;;;;;;4956450;28;20187;-81
2022/04/15 04:17:01;;;;;;;7.32;5.20;;;7.90;99.90;;;;;;4974153;28;20050;-81
2022/04/15 04:19:27;;;;;;;6.72;4.90;;;7.80;99.90;;;;;;4972514;28;20047;-80
2022/04/15 04:21:52;;;;;;;8.10;5.50;;;7.80;99.90;;;;;;4956766;28;20055;-81
2022/04/15 04:24:18;;;;;;;9.65;5.55;;;7.80;99.90;;;;;;4973855;28;20043;-82
2022/04/15 04:26:43;;;;;;;7.40;5.07;;;7.80;99.90;;;;;;4955574;28;20495;-82
2022/04/15 04:29:09;;;;;;;8.00;4.80;;;7.80;99.90;;;;;;4973902;28;20061;-80
2022/04/15 04:31:35;;;;;;;8.75;4.82;;;7.80;99.90;;;;;;4973858;28;20054;-82
2022/04/15 04:34:00;;;;;;;6.63;4.50;;;7.80;99.90;;;;;;4973681;28;20391;-82
2022/04/15 04:36:26;;;;;;;11.48;4.80;;;7.70;99.90;;;;;;4973587;28;20078;-81
2022/04/15 04:38:51;;;;;;;7.90;4.28;;;7.70;99.90;;;;;;4956374;28;20130;-81
2022/04/15 04:41:17;;;;;;;10.02;4.47;;;7.70;99.90;;;;;;4973253;28;20050;-82
2022/04/15 04:43:43;;;;;;;6.97;3.92;;;7.70;99.90;;;;;;4973430;28;20058;-82
2022/04/15 04:46:08;;;;;;;6.90;4.28;;;8.10;99.90;;;;;;4955430;28;20055;-83
2022/04/15 04:48:34;;;;;;;6.03;3.63;;;7.70;99.90;;;;;;4973507;28;20113;-83
2022/04/15 04:51:00;;;;;;;4.75;3.10;;;7.60;99.90;;;;;;4972940;28;20054;-81
2022/04/15 04:53:25;;;;;;;5.13;3.30;;;7.60;99.90;;;;;;4973454;28;20555;-81
2022/04/15 04:55:51;;;;;;;5.28;3.08;;;7.60;99.90;;;;;;4973193;28;20053;-81
2022/04/15 04:58:16;;;;;;;5.30;2.90;;;7.60;99.90;;;;;;4955586;28;20047;-80
2022/04/15 05:00:42;;;;;;;5.38;3.30;;;7.60;99.90;;;;;;4973323;28;20082;-80
2022/04/15 05:03:08;;;;;;;3.97;3.10;;;7.50;99.90;;;;;;4973334;28;20038;-81
2022/04/15 05:05:33;;;;;;;5.32;3.08;;;7.60;99.90;;;;;;4972527;28;20047;-80
2022/04/15 05:07:59;;;;;;;5.38;3.33;;;7.90;99.90;;;;;;4972770;28;20050;-82
2022/04/15 05:10:25;;;;;;;5.68;3.13;;;7.50;99.90;;;;;;4972829;28;20047;-81
2022/04/15 05:12:50;;;;;;;5.22;2.90;;;7.50;99.90;;;;;;4954754;28;20054;-81
2022/04/15 05:15:19;;;;;;;4.00;2.63;;;7.50;99.90;;;;;;4972552;28;20398;-80
2022/04/15 05:17:45;;;;;;;4.63;2.28;;;7.50;99.90;;;;;;4972753;28;20640;-81
2022/04/15 05:20:10;;;;;;;5.80;2.90;;;7.50;99.90;;;;;;4955422;28;20042;-82
2022/04/15 05:22:36;;;;;;;3.78;2.40;;;7.90;99.90;;;;;;4973125;28;20180;-83
2022/04/15 05:25:02;;;;;;;5.68;2.47;;;7.70;99.90;;;;;;4939917;28;20093;-82
2022/04/15 05:27:28;;;;;;;7.30;3.15;;;7.40;99.90;;;;;;4972736;28;20053;-83
2022/04/15 05:29:54;;;;;;;4.10;2.58;;;7.40;99.90;;;;;;4971612;28;20062;-83
2022/04/15 05:32:22;;;;;;;7.57;2.45;;;7.40;99.90;;;;;;4955320;28;20414;-82
2022/04/15 05:34:48;;;;;;;8.10;2.55;;;7.40;99.90;;;;;;4972051;28;20122;-81
2022/04/15 05:37:13;;;;;;;5.60;2.35;;;7.50;99.90;;;;;;4971979;28;20181;-80
2022/04/15 05:39:39;;;;;;;5.32;1.98;;;7.40;99.90;;;;;;4950834;28;20047;-82
2022/04/15 05:42:05;;;;;;;4.90;2.30;;;7.40;99.90;;;;;;4972244;28;20058;-80
2022/04/15 05:44:31;;;;;;;5.50;2.60;;;7.30;99.90;;;;;;4972057;28;20057;-81
2022/04/15 05:46:56;;;;;;;3.72;2.40;;;7.30;99.90;;;;;;4972241;28;20055;-78
2022/04/15 05:49:24;;;;;;;5.53;3.10;;;7.40;99.90;;;;;;4972276;28;20414;-81
2022/04/15 05:51:50;;;;;;;7.65;3.15;;;7.40;99.90;;;;;;4971857;28;20183;-82
2022/04/15 05:54:15;;;;;;;5.10;3.58;;;7.40;99.90;;;;;;4972761;28;20599;-82
2022/04/15 05:56:41;;;;;;;9.00;3.65;;;7.40;99.90;;;;;;4972377;28;20039;-82
2022/04/15 05:59:07;;;;;;;10.07;3.63;;;7.40;99.90;;;;;;4954547;28;20847;-82
2022/04/15 06:01:33;;;;;;;7.03;3.67;;;7.40;99.90;;;;;;4971880;28;20046;-81
2022/04/15 06:03:58;;;;;;;5.25;3.70;;;7.40;99.90;;;;;;4972019;28;20053;-80
2022/04/15 06:06:24;;;;;;;8.48;3.85;;;7.40;99.90;;;;;;4954488;28;20449;-82
2022/04/15 06:08:50;;;;;;;6.47;3.75;;;7.40;99.90;;;;;;4971739;28;20054;-82
2022/04/15 06:11:15;;;;;;;7.25;4.00;;;7.40;99.90;;;;;;4972133;28;20055;-80
2022/04/15 06:13:46;;;;;;;9.02;3.92;;;7.40;99.90;;;;;;4954537;28;20101;-81
2022/04/15 06:16:17;;;;;;;11.82;4.40;;;7.40;99.90;;;;;;4955352;28;20054;-82
2022/04/15 06:18:43;;;;;;;8.18;4.45;;;7.40;99.90;;;;;;4952621;28;20055;-79
2022/04/15 06:21:09;;;;;;;5.85;4.30;;;7.40;99.90;;;;;;4971212;28;20122;-82
2022/04/15 06:23:34;;;;;;;7.68;4.78;;;7.40;99.90;;;;;;4954332;28;20561;-78
2022/04/15 06:26:01;;;;;;;8.48;5.25;;;7.50;99.90;;;;;;4971749;28;20055;-82
2022/04/15 06:28:27;;;;;;;7.53;4.93;;;7.50;99.90;;;;;;4953840;28;20057;-80
2022/04/15 06:30:56;;;;;;;8.75;5.60;;;7.50;99.90;;;;;;4953977;28;20523;-80
2022/04/15 06:33:22;;;;;;;9.40;5.47;;;7.50;99.90;;;;;;4937539;28;20486;-81
2022/04/15 06:35:51;;;;;;;9.77;5.95;;;7.50;99.90;;;;;;4954257;28;20046;-79
2022/04/15 06:38:17;;;;;;;8.82;6.03;;;7.80;99.90;;;;;;4971508;28;20109;-82
2022/04/15 06:40:42;;;;;;;11.80;6.28;;;7.60;99.90;;;;;;4953770;28;20054;-82
2022/04/15 06:43:08;;;;;;;14.93;7.07;;;7.60;99.90;;;;;;4953153;28;20508;-83
2022/04/15 06:45:34;;;;;;;9.93;6.85;;;7.60;99.90;;;;;;4954016;28;20138;-81
2022/04/15 06:48:00;;;;;;;8.05;5.88;;;7.70;99.90;;;;;;4971251;28;20081;-81
2022/04/15 06:50:25;;;;;;;11.07;6.22;;;7.70;99.90;;;;;;4971611;28;20101;-82
2022/04/15 06:52:51;;;;;;;10.02;5.97;;;7.80;99.90;;;;;;4971143;28;20066;-81
2022/04/15 06:55:18;;;;;;;8.90;6.47;;;7.80;99.90;;;;;;4971519;28;20039;-81
2022/04/15 06:57:43;;;;;;;10.43;6.80;;;7.80;99.90;;;;;;4971127;28;20042;-83
2022/04/15 07:00:13;;;;;;;15.75;6.90;;;7.90;99.90;;;;;;4953778;28;20057;-82
2022/04/15 07:02:41;;;;;;;10.13;6.90;;;7.90;99.90;;;;;;4970491;28;20042;-80
2022/04/15 07:05:09;;;;;;;12.82;7.25;;;7.90;99.90;;;;;;4971269;28;20090;-82
2022/04/15 07:07:36;;;;;;;10.27;7.53;;;8.00;99.90;;;;;;4971684;28;20055;-82
2022/04/15 07:10:02;;;;;;;14.73;8.13;;;8.00;99.90;;;;;;4971361;28;20043;-82
2022/04/15 07:12:28;;;;;;;12.23;8.38;;;8.00;99.90;;;;;;4953992;28;20051;-81
2022/04/15 07:14:54;;;;;;;12.18;8.43;;;8.10;99.90;;;;;;4971160;28;20043;-80
2022/04/15 07:17:20;;;;;;;16.52;8.88;;;8.50;99.90;;;;;;4953658;28;20117;-77
2022/04/15 07:19:45;;;;;;;13.23;9.00;;;8.50;99.90;;;;;;4953013;28;20066;-80
2022/04/15 07:22:11;;;;;;;15.50;9.30;;;8.20;99.90;;;;;;4971194;28;20117;-81
2022/04/15 07:24:36;;;;;;;17.95;9.15;;;8.20;99.90;;;;;;4953443;28;20055;-79
2022/04/15 07:27:03;;;;;;;15.25;8.60;;;8.20;99.90;;;;;;4953413;28;20399;-80
2022/04/15 07:29:30;;;;;;;13.88;9.15;;;8.30;99.90;;;;;;4971065;28;20093;-78
2022/04/15 07:31:57;;;;;;;17.75;9.30;;;8.30;99.90;;;;;;4971554;28;20058;-80
2022/04/15 07:34:22;;;;;;;13.88;8.30;;;8.30;99.90;;;;;;4970532;28;20497;-80
2022/04/15 07:36:54;;;;;;;21.00;8.60;;;8.50;99.90;;;;;;4970830;28;20039;-80
2022/04/15 07:39:21;;;;;;;17.65;8.88;;;8.60;99.90;;;;;;4971195;28;20055;-80
2022/04/15 07:41:47;;;;;;;16.38;9.70;;;8.60;99.90;;;;;;4971237;28;20805;-79
2022/04/15 07:44:14;;;;;;;17.85;8.95;;;8.70;99.90;;;;;;4970693;28;20458;-81
2022/04/15 07:46:42;;;;;;;19.15;9.27;;;8.70;99.90;;;;;;4953392;28;20058;-82
2022/04/15 07:49:08;;;;;;;17.85;8.93;;;8.80;99.90;;;;;;4971069;28;20564;-81
2022/04/15 07:51:35;;;;;;;18.45;8.60;;;8.80;99.90;;;;;;4953369;28;20042;-83
2022/04/15 07:54:06;;;;;;;13.80;8.50;;;9.10;99.90;;;;;;4972820;28;20047;-79
2022/04/15 07:56:32;;;;;;;20.30;8.98;;;8.90;99.90;;;;;;4974186;28;20484;-81
2022/04/15 07:58:59;;;;;;;16.48;8.43;;;8.90;99.90;;;;;;4974718;28;20065;-81
2022/04/15 08:01:28;;;;;;;18.65;8.30;;;9.00;99.90;;;;;;4974115;28;20062;-80
2022/04/15 08:03:55;;;;;;;18.13;7.75;;;9.00;99.90;;;;;;4973073;28;20490;-78
2022/04/15 08:06:22;;;;;;;17.17;7.60;;;9.00;99.90;;;;;;4955668;28;20498;-80
2022/04/15 08:08:55;;;;;;;18.35;7.75;;;9.00;99.90;;;;;;4955469;28;20050;-78
2022/04/15 08:11:22;;;;;;;15.07;7.05;;;9.10;99.90;;;;;;4962437;28;20411;-79
2022/04/15 08:13:48;;;;;;;11.77;6.30;;;9.20;99.90;;;;;;4987816;28;20046;-79
2022/04/15 08:16:14;;;;;;;9.35;5.20;;;9.40;99.90;;;;;;4987993;28;20062;-80
2022/04/15 08:18:40;;;;;;;11.73;4.50;;;9.90;99.90;;;;;;4988576;28;20047;-79
2022/04/15 08:21:07;;;;;;;10.75;3.90;;;9.50;99.90;;;;;;4959309;28;20055;-81
2022/04/15 08:23:32;;;;;;;12.85;4.47;;;9.70;99.90;;;;;;4955966;28;20047;-82
2022/04/15 08:25:58;;;;;;;11.48;3.92;;;10.30;99.90;;;;;;4955867;28;20406;-82
2022/04/15 08:28:24;;;;;;;8.15;4.10;;;9.90;99.90;;;;;;4974056;28;20475;-82
2022/04/15 08:30:50;;;;;;;13.02;4.32;;;10.10;99.90;;;;;;4973777;28;20051;-82
2022/04/15 08:33:15;;;;;;;12.07;4.43;;;10.30;99.90;;;;;;4956109;28;20043;-83
2022/04/15 08:35:41;;;;;;;9.95;4.13;;;10.60;99.90;;;;;;4956454;28;20050;-82
2022/04/15 08:38:07;;;;;;;13.43;3.80;;;10.90;99.90;;;;;;4973673;28;20540;-81
2022/04/15 08:40:35;;;;;;;10.10;3.95;;;10.50;99.90;;;;;;4973592;28;20050;-80
2022/04/15 08:43:04;;;;;;;7.78;3.92;;;10.50;99.90;;;;;;4971579;28;20130;-79
2022/04/15 08:45:30;;;;;;;12.02;4.18;;;10.50;99.90;;;;;;4955853;28;20146;-81
2022/04/15 08:48:00;;;;;;;10.52;4.38;;;10.50;99.90;;;;;;4944682;28;20045;-80
2022/04/15 08:50:30;;;;;;;10.30;4.50;;;10.50;99.90;;;;;;4973260;28;20053;-81
2022/04/15 08:52:58;;;;;;;9.73;5.18;;;10.70;99.90;;;;;;4973217;28;20034;-81
2022/04/15 08:55:24;;;;;;;12.82;5.15;;;10.60;99.90;;;;;;4973387;28;20154;-81
2022/04/15 08:57:51;;;;;;;12.13;5.35;;;11.00;99.90;;;;;;4955497;28;20038;-82
2022/04/15 09:00:21;;;;;;;12.68;5.13;;;11.10;99.90;;;;;;4972858;28;20429;-81
2022/04/15 09:02:49;;;;;;;8.68;4.95;;;10.80;99.90;;;;;;4973197;28;20053;-84
2022/04/15 09:05:19;;;;;;;17.73;4.60;;;10.90;99.90;;;;;;4955018;28;20058;-83
2022/04/15 09:07:45;;;;;;;10.18;4.32;;;11.30;99.90;;;;;;4955325;28;20661;-80
2022/04/15 09:10:12;;;;;;;13.05;5.40;;;10.90;99.90;;;;;;4972699;28;20046;-82
2022/04/15 09:12:40;;;;;;;7.43;4.25;;;11.30;99.90;;;;;;4973050;28;20058;-80
2022/04/15 09:15:06;;;;;;;9.93;4.90;;;11.10;99.90;;;;;;4972893;28;20046;-80
2022/04/15 09:17:32;;;;;;;11.27;4.10;;;11.30;99.90;;;;;;4972950;28;20058;-81
2022/04/15 09:19:59;;;;;;;9.80;4.65;;;11.70;99.90;;;;;;4972604;28;20049;-81
2022/04/15 09:22:25;;;;;;;10.38;4.30;;;11.60;99.90;;;;;;4954884;28;20055;-81
2022/04/15 09:24:51;;;;;;;9.30;4.07;;;11.80;99.90;;;;;;4971091;28;20080;-81
2022/04/15 09:27:19;;;;;;;9.38;3.90;;;12.00;99.90;;;;;;4971162;28;20142;-80
2022/04/15 09:29:45;;;;;;;9.35;3.35;;;12.10;99.90;;;;;;4971501;28;20175;-83
2022/04/15 09:32:16;;;;;;;5.68;2.95;;;12.10;99.90;;;;;;4972533;28;20776;-79
2022/04/15 09:34:59;;;;;;;11.77;4.15;;;12.10;99.90;;;;;;4972673;28;20054;-81
2022/04/15 09:37:27;;;;;;;10.38;4.20;;;12.00;99.90;;;;;;4972615;28;20050;-81
2022/04/15 09:40:08;;;;;;;12.82;4.85;;;12.50;99.90;;;;;;4972069;28;20042;-82
2022/04/15 09:42:35;;;;;;;6.93;3.78;;;12.70;99.90;;;;;;4972582;28;20050;-82
2022/04/15 09:45:18;;;;;;;9.90;4.28;;;12.50;99.90;;;;;;4954869;28;20054;-82
2022/04/15 09:48:13;;;;;;;12.48;4.35;;;12.60;99.90;;;;;;4972657;28;20046;-81
2022/04/15 09:50:44;;;;;;;8.27;4.00;;;12.50;99.90;;;;;;4954500;28;20479;-82
2022/04/15 09:53:19;;;;;;;8.10;4.00;;;12.40;99.90;;;;;;4972388;28;20053;-82
2022/04/15 09:55:46;;;;;;;;;;;13.30;99.90;;;;;;4972681;28;20059;-81
2022/04/15 09:58:16;;;;;;;9.65;4.65;;;13.50;99.90;;;;;;4972546;28;19926;-81
2022/04/15 10:00:45;;;;;;;10.57;4.95;;;13.30;99.90;;;;;;4972545;28;20601;-83
2022/04/15 10:03:17;;;;;;;11.48;4.30;;;13.20;99.90;;;;;;4972008;28;20097;-81
2022/04/15 10:05:43;;;;;;;11.32;4.30;;;13.10;99.90;;;;;;4972144;28;20397;-81
2022/04/15 10:08:10;;;;;;;11.85;4.75;;;13.20;99.90;;;;;;4971125;28;20041;-81
2022/04/15 10:10:36;;;;;;;10.07;5.07;;;13.20;99.90;;;;;;4971679;28;20885;-82
2022/04/15 10:13:04;;;;;;;13.27;4.85;;;13.10;99.90;;;;;;4971962;28;20051;-82
2022/04/15 10:15:31;;;;;;;9.95;4.90;;;13.20;99.90;;;;;;4954433;28;20043;-84
2022/04/15 10:18:00;;;;;;;7.03;4.47;;;13.20;99.90;;;;;;4971081;28;20065;-83
2022/04/15 10:20:28;;;;;;;8.95;4.57;;;13.40;99.90;;;;;;4970975;28;20043;-83
2022/04/15 10:22:59;;;;;;;7.30;3.45;;;13.10;99.90;;;;;;4971737;28;20449;-81
2022/04/15 10:25:25;;;;;;;8.10;3.90;;;13.40;99.90;;;;;;4971857;28;20097;-84
2022/04/15 10:27:50;;;;;;;9.85;4.10;;;13.20;99.90;;;;;;4971848;28;20129;-84
2022/04/15 10:30:21;;;;;;;7.68;4.22;;;13.10;99.90;;;;;;4971695;28;20170;-82
2022/04/15 10:32:48;;;;;;;10.63;4.20;;;13.40;99.90;;;;;;4971899;28;20054;-83
2022/04/15 10:35:21;;;;;;;8.23;3.80;;;13.00;99.90;;;;;;4954494;28;20064;-83
2022/04/15 10:37:53;;;;;;;7.18;3.75;;;13.00;99.90;;;;;;4971706;28;20047;-82
2022/04/15 10:40:27;;;;;;;6.57;4.03;;;12.90;99.90;;;;;;4954014;28;20094;-83
2022/04/15 10:42:53;;;;;;;6.78;3.58;;;12.90;99.90;;;;;;4953892;28;20517;-83
2022/04/15 10:45:26;;;;;;;9.60;4.18;;;12.80;99.90;;;;;;4971519;28;20071;-83
2022/04/15 10:47:58;;;;;;;7.85;3.90;;;12.80;99.90;;;;;;4971164;28;20057;-82
2022/04/15 10:50:28;;;;;;;8.55;4.50;;;12.60;99.90;;;;;;4971799;28;20090;-81
2022/04/15 10:53:26;;;;;;;9.50;4.18;;;12.70;99.90;;;;;;4971689;28;20043;-83
2022/04/15 10:55:52;;;;;;;9.25;4.13;;;12.50;99.90;;;;;;4971523;28;20065;-83
2022/04/15 10:58:20;;;;;;;12.55;4.30;;;12.60;99.90;;;;;;4953345;28;20050;-83
2022/04/15 11:01:19;;;;;;;6.82;3.95;;;12.50;99.90;;;;;;4971525;28;20043;-81
2022/04/15 11:04:03;;;;;;;8.02;4.55;;;12.40;99.90;;;;;;4954242;28;20059;-82
2022/04/15 11:06:29;;;;;;;7.50;3.97;;;12.40;99.90;;;;;;4971498;28;20058;-80
2022/04/15 11:08:55;;;;;;;9.93;4.68;;;12.30;99.90;;;;;;4971087;28;20304;-81
2022/04/15 11:11:40;;;;;;;9.75;4.40;;;12.50;99.90;;;;;;4971398;28;20043;-82
2022/04/15 11:14:08;;;;;;;8.25;4.50;;;12.20;99.90;;;;;;4970992;28;20047;-83
2022/04/15 11:16:41;;;;;;;7.93;4.03;;;12.20;99.90;;;;;;4971404;28;20496;-81
2022/04/15 11:19:08;;;;;;;9.82;4.95;;;12.00;99.90;;;;;;4971055;28;20051;-83
2022/04/15 11:21:39;;;;;;;11.07;4.22;;;12.10;99.90;;;;;;4971099;28;20112;-84
2022/04/15 11:24:10;;;;;;;9.82;4.60;;;12.10;99.90;;;;;;4971544;28;20449;-81
2022/04/15 11:26:38;;;;;;;9.65;4.57;;;11.90;99.90;;;;;;4971307;28;20258;-82
2022/04/15 11:29:05;;;;;;;11.82;4.40;;;12.00;99.90;;;;;;4972004;28;20380;-83
2022/04/15 11:31:35;;;;;;;8.18;5.00;;;11.90;99.90;;;;;;4974480;28;20145;-82
2022/04/15 11:34:20;;;;;;;10.25;4.70;;;11.90;99.90;;;;;;4974762;28;20051;-81
2022/04/15 11:36:53;;;;;;;13.40;4.78;;;12.20;99.90;;;;;;4955705;29;20055;-82
2022/04/15 11:39:21;;;;;;;11.15;5.32;;;12.20;99.90;;;;;;4955443;29;20546;-82
2022/04/15 11:41:52;;;;;;;11.07;4.88;;;11.90;99.90;;;;;;4938176;29;20399;-84
2022/04/15 11:44:18;;;;;;;11.57;4.93;;;12.00;99.90;;;;;;4954997;29;20640;-82
2022/04/15 11:46:50;;;;;;;8.70;4.78;;;11.80;99.90;;;;;;4955085;29;20054;-81
2022/04/15 11:49:31;;;;;;;12.63;5.70;;;11.70;99.90;;;;;;4961092;28;20093;-81
2022/04/15 11:51:59;;;;;;;9.15;4.50;;;11.70;99.90;;;;;;4974446;28;20051;-82
2022/04/15 11:54:31;;;;;;;10.20;4.80;;;11.60;99.90;;;;;;4974830;28;20051;-82
2022/04/15 11:56:59;;;;;;;10.80;5.25;;;11.70;99.90;;;;;;4974861;28;20053;-80
2022/04/15 11:59:25;;;;;;;12.35;5.32;;;12.20;99.90;;;;;;4974158;28;20050;-81
2022/04/15 12:01:53;;;;;;;9.50;5.13;;;11.60;99.90;;;;;;4956944;28;20058;-81
2022/04/15 12:04:19;;;;;;;9.75;5.35;;;11.60;99.90;;;;;;4957104;28;20047;-82
2022/04/15 12:06:45;;;;;;;12.23;5.60;;;11.60;99.90;;;;;;4974656;28;20050;-84
2022/04/15 12:09:13;;;;;;;11.15;5.60;;;11.60;99.90;;;;;;4973941;28;20053;-81
2022/04/15 12:11:39;;;;;;;7.75;4.53;;;11.70;99.90;;;;;;4974531;28;20398;-82
2022/04/15 12:14:08;;;;;;;9.70;4.78;;;11.60;99.90;;;;;;4974227;28;20042;-82
2022/04/15 12:16:42;;;;;;;7.65;4.10;;;11.70;99.90;;;;;;4974137;28;20046;-84
2022/04/15 12:19:08;;;;;;;7.82;4.45;;;11.70;99.90;;;;;;4960144;28;20077;-79
2022/04/15 12:21:35;;;;;;;10.25;4.40;;;12.00;99.90;;;;;;4996585;28;20050;-77
2022/04/15 12:24:13;;;;;;;11.07;4.80;;;11.60;99.90;;;;;;4996806;28;20055;-81
2022/04/15 12:26:40;;;;;;;8.80;4.40;;;11.70;99.90;;;;;;4972151;28;20478;-83
2022/04/15 12:31:50;;;;;;;9.70;4.47;;;11.70;99.90;;;;;;4955928;28;20059;-83
2022/04/15 12:34:16;;;;;;;9.05;5.28;;;12.00;99.90;;;;;;4973637;28;20070;-83
2022/04/15 12:36:43;;;;;;;9.77;4.63;;;11.60;99.90;;;;;;4956311;28;20387;-82
2022/04/15 12:39:10;;;;;;;10.25;4.93;;;11.50;99.90;;;;;;4973636;28;20430;-83
2022/04/15 12:41:46;;;;;;;8.35;4.60;;;11.50;99.90;;;;;;4972652;28;20038;-83
2022/04/15 12:44:32;;;;;;;14.52;5.30;;;11.50;99.90;;;;;;4973650;28;20050;-82
2022/04/15 12:47:00;;;;;;;10.10;4.13;;;11.50;99.90;;;;;;4952030;28;20043;-82
2022/04/15 12:49:36;;;;;;;10.73;4.53;;;11.50;99.90;;;;;;4988552;28;20130;-82
2022/04/15 12:52:15;;;;;;;7.35;4.32;;;11.50;99.90;;;;;;4973315;28;20054;-83